createdAt,value
2018-12-11T00:02:00.869Z,3.17
2018-12-11T00:04:29.072Z,5.70
2018-12-11T00:06:57.262Z,9.30
2018-12-11T00:09:25.588Z,3.87
2018-12-11T00:11:53.907Z,3.73
2018-12-11T00:14:22.228Z,5.50
2018-12-11T00:16:50.548Z,3.47
2018-12-11T00:19:18.668Z,3.00
2018-12-11T00:21:46.928Z,3.30
2018-12-11T00:24:15.207Z,4.77
2018-12-11T00:26:43.453Z,4.00
2018-12-11T00:29:11.665Z,3.33
2018-12-11T00:31:39.908Z,2.90
2018-12-11T00:34:08.104Z,3.00
2018-12-11T00:36:36.336Z,2.90
2018-12-11T00:39:05.496Z,3.50
2018-12-11T00:41:33.688Z,3.40
2018-12-11T00:44:01.871Z,2.77
2018-12-11T00:46:30.090Z,2.80
2018-12-11T00:48:58.291Z,3.20
2018-12-11T00:51:26.457Z,3.53
2018-12-11T00:53:54.673Z,3.60
2018-12-11T00:56:22.900Z,4.07
2018-12-11T00:58:51.192Z,3.63
2018-12-11T01:01:19.411Z,3.70
2018-12-11T01:03:47.630Z,3.73
2018-12-11T01:06:15.781Z,4.10
2018-12-11T01:08:43.988Z,3.30
2018-12-11T01:11:12.293Z,2.93
2018-12-11T01:13:40.611Z,3.23
2018-12-11T01:16:08.868Z,3.43
2018-12-11T01:18:37.097Z,4.23
2018-12-11T01:21:05.312Z,3.53
2018-12-11T01:23:33.533Z,3.10
2018-12-11T01:26:01.629Z,2.90
2018-12-11T01:28:29.848Z,3.30
2018-12-11T01:30:58.151Z,3.20
2018-12-11T01:33:26.573Z,3.63
2018-12-11T01:35:54.892Z,3.77
2018-12-11T01:38:23.213Z,3.17
2018-12-11T01:40:51.476Z,3.30
2018-12-11T01:43:19.751Z,2.73
2018-12-11T01:45:48.072Z,3.30
2018-12-11T01:48:16.393Z,2.60
2018-12-11T01:50:44.713Z,3.50
2018-12-11T01:53:12.934Z,3.30
2018-12-11T01:55:41.256Z,3.40
2018-12-11T01:58:09.488Z,3.93
2018-12-11T02:00:37.794Z,3.53
2018-12-11T02:03:06.015Z,23.37
2018-12-11T02:05:34.334Z,8.67
2018-12-11T02:08:02.754Z,10.70
2018-12-11T02:10:30.975Z,4.80
2018-12-11T02:12:59.297Z,2.90
2018-12-11T02:15:27.545Z,3.30
2018-12-11T02:17:55.764Z,3.70
2018-12-11T02:20:24.001Z,4.77
2018-12-11T02:22:52.312Z,2.57
2018-12-11T02:25:20.520Z,2.23
2018-12-11T02:27:48.737Z,3.10
2018-12-11T02:30:16.977Z,5.50
2018-12-11T02:32:45.199Z,24.20
2018-12-11T02:35:13.479Z,4.63
2018-12-11T02:37:41.798Z,2.93
2018-12-11T02:40:10.065Z,2.97
2018-12-11T02:42:38.281Z,3.10
2018-12-11T02:45:06.462Z,3.03
2018-12-11T02:47:34.708Z,3.47
2018-12-11T02:50:02.817Z,4.27
2018-12-11T02:52:31.040Z,4.80
2018-12-11T02:54:59.265Z,4.07
2018-12-11T02:57:27.561Z,4.07
2018-12-11T02:59:55.879Z,3.60
2018-12-11T03:02:24.125Z,2.90
2018-12-11T03:04:52.345Z,2.97
2018-12-11T03:07:20.709Z,3.30
2018-12-11T03:09:48.912Z,3.50
2018-12-11T03:12:17.120Z,3.53
2018-12-11T03:14:45.441Z,2.80
2018-12-11T03:17:13.866Z,3.10
2018-12-11T03:19:42.058Z,2.87
2018-12-11T03:22:10.361Z,2.80
2018-12-11T03:24:38.779Z,3.27
2018-12-11T03:27:07.005Z,3.20
2018-12-11T03:29:35.275Z,2.73
2018-12-11T03:32:03.986Z,2.70
2018-12-11T03:34:32.206Z,2.47
2018-12-11T03:37:00.483Z,3.00
2018-12-11T03:39:28.425Z,2.57
2018-12-11T03:41:56.723Z,2.90
2018-12-11T03:44:24.942Z,2.90
2018-12-11T03:46:53.597Z,2.97
2018-12-11T03:49:21.801Z,4.33
2018-12-11T03:51:49.919Z,3.80
2018-12-11T03:54:18.163Z,3.40
2018-12-11T03:56:46.340Z,2.80
2018-12-11T03:59:14.604Z,3.67
2018-12-11T04:01:42.828Z,3.47
2018-12-11T04:04:11.103Z,3.57
2018-12-11T04:06:39.372Z,3.47
2018-12-11T04:09:07.989Z,3.70
2018-12-11T04:11:36.206Z,2.80
2018-12-11T04:14:04.584Z,3.70
2018-12-11T04:16:32.737Z,24.60
2018-12-11T04:19:00.928Z,10.07
2018-12-11T04:21:29.578Z,4.03
2018-12-11T04:23:57.813Z,4.87
2018-12-11T04:26:25.926Z,3.90
2018-12-11T04:28:54.207Z,5.67
2018-12-11T04:31:22.370Z,3.40
2018-12-11T04:33:50.592Z,3.33
2018-12-11T04:36:18.966Z,13.70
2018-12-11T04:38:47.289Z,4.70
2018-12-11T04:41:15.537Z,3.30
2018-12-11T04:43:43.768Z,2.80
2018-12-11T04:46:11.870Z,4.17
2018-12-11T04:48:40.084Z,14.17
2018-12-11T04:51:08.317Z,8.80
2018-12-11T04:53:36.447Z,4.57
2018-12-11T04:56:04.724Z,10.20
2018-12-11T04:58:32.982Z,7.90
2018-12-11T05:01:01.210Z,4.13
2018-12-11T05:03:29.384Z,4.13
2018-12-11T05:05:57.706Z,4.30
2018-12-11T05:08:26.025Z,3.80
2018-12-11T05:10:54.281Z,4.50
2018-12-11T05:13:22.507Z,3.30
2018-12-11T05:15:50.785Z,3.40
2018-12-11T05:18:21.223Z,4.47
2018-12-11T05:20:49.433Z,5.30
2018-12-11T05:23:17.687Z,3.97
2018-12-11T05:25:45.897Z,4.37
2018-12-11T05:28:14.138Z,6.70
2018-12-11T05:30:42.356Z,3.90
2018-12-11T05:33:10.534Z,10.00
2018-12-11T05:35:38.784Z,5.43
2018-12-11T05:38:07.021Z,4.70
2018-12-11T05:40:35.294Z,5.63
2018-12-11T05:43:03.457Z,4.50
2018-12-11T05:45:31.633Z,5.73
2018-12-11T05:47:59.796Z,3.47
2018-12-11T05:50:28.072Z,4.30
2018-12-11T05:52:56.333Z,6.50
2018-12-11T05:55:26.721Z,5.27
2018-12-11T05:57:54.945Z,6.07
2018-12-11T06:00:23.185Z,6.73
2018-12-11T06:02:51.411Z,4.73
2018-12-11T06:05:19.520Z,6.90
2018-12-11T06:07:47.820Z,9.37
2018-12-11T06:10:16.060Z,5.03
2018-12-11T06:12:44.405Z,5.33
2018-12-11T06:15:12.784Z,12.57
2018-12-11T06:17:41.044Z,6.97
2018-12-11T06:20:09.264Z,5.70
2018-12-11T06:22:37.543Z,7.10
2018-12-11T06:25:05.660Z,6.47
2018-12-11T06:27:33.924Z,5.70
2018-12-11T06:30:02.204Z,5.60
2018-12-11T06:32:30.449Z,6.57
2018-12-11T06:34:58.740Z,4.20
2018-12-11T06:37:27.061Z,5.50
2018-12-11T06:39:55.313Z,5.27
2018-12-11T06:42:23.529Z,5.40
2018-12-11T06:44:51.764Z,4.90
2018-12-11T06:47:20.085Z,4.90
2018-12-11T06:49:48.436Z,4.73
2018-12-11T06:52:16.612Z,5.73
2018-12-11T06:54:44.845Z,6.30
2018-12-11T06:57:13.180Z,6.83
2018-12-11T06:59:41.351Z,6.23
2018-12-11T07:02:09.663Z,5.40
2018-12-11T07:04:37.982Z,6.77
2018-12-11T07:30:05.756Z,7.43
2018-12-11T07:35:14.123Z,4.97
2018-12-11T07:37:42.425Z,4.67
2018-12-11T07:40:10.687Z,6.17
2018-12-11T07:42:38.891Z,6.30
2018-12-11T07:45:07.378Z,4.67
2018-12-11T07:47:35.542Z,7.13
2018-12-11T07:50:04.000Z,5.60
2018-12-11T07:52:32.152Z,5.33
2018-12-11T07:55:00.381Z,5.13
2018-12-11T07:57:28.623Z,4.73
2018-12-11T07:59:56.828Z,5.43
2018-12-11T08:02:25.051Z,4.33
2018-12-11T08:04:53.265Z,4.73
2018-12-11T08:07:21.568Z,5.27
2018-12-11T08:09:49.888Z,4.80
2018-12-11T08:12:18.157Z,4.87
2018-12-11T08:14:46.373Z,5.37
2018-12-11T08:17:14.573Z,5.70
2018-12-11T08:19:42.793Z,5.67
2018-12-11T08:22:11.006Z,5.90
2018-12-11T08:24:39.812Z,4.53
2018-12-11T08:27:08.074Z,5.00
2018-12-11T08:29:36.285Z,4.73
2018-12-11T08:32:04.495Z,4.30
2018-12-11T08:34:32.717Z,4.83
2018-12-11T08:37:01.013Z,6.17
2018-12-11T08:39:29.232Z,9.50
2018-12-11T08:41:57.505Z,138.40
2018-12-11T08:44:25.670Z,7.00
2018-12-11T08:46:53.914Z,6.13
2018-12-11T08:49:22.210Z,5.67
2018-12-11T08:51:50.474Z,4.13
2018-12-11T08:54:18.684Z,14.40
2018-12-11T08:56:46.972Z,8.40
2018-12-11T08:59:15.238Z,4.30
2018-12-11T09:01:43.444Z,4.63
2018-12-11T09:04:11.544Z,5.50
2018-12-11T09:06:39.693Z,5.70
2018-12-11T09:09:07.916Z,6.97
2018-12-11T09:11:36.137Z,13.77
2018-12-11T09:14:04.399Z,4.90
2018-12-11T09:16:32.381Z,7.10
2018-12-11T09:19:00.581Z,5.93
2018-12-11T09:21:28.884Z,8.03
2018-12-11T09:23:57.138Z,9.80
2018-12-11T09:26:25.409Z,15.30
2018-12-11T09:28:53.670Z,5.47
2018-12-11T09:31:21.893Z,10.30
2018-12-11T09:33:50.124Z,8.43
2018-12-11T09:36:18.304Z,5.67
2018-12-11T09:38:46.609Z,5.03
2018-12-11T09:41:14.929Z,4.97
2018-12-11T09:43:42.972Z,5.30
2018-12-11T09:46:11.189Z,4.97
2018-12-11T09:48:39.453Z,4.07
2018-12-11T09:51:07.732Z,56.07
2018-12-11T09:53:36.030Z,7.37
2018-12-11T09:56:04.351Z,4.97
2018-12-11T09:58:32.612Z,5.60
2018-12-11T10:01:00.890Z,6.30
2018-12-11T10:03:29.130Z,6.40
2018-12-11T10:05:57.329Z,11.60
2018-12-11T10:08:25.494Z,5.70
2018-12-11T10:10:53.713Z,4.33
2018-12-11T10:13:21.936Z,4.70
2018-12-11T10:15:50.209Z,5.30
2018-12-11T10:18:18.479Z,7.47
2018-12-11T10:20:46.815Z,4.70
2018-12-11T10:23:15.472Z,5.80
2018-12-11T10:25:43.641Z,5.43
2018-12-11T10:28:11.836Z,5.30
2018-12-11T10:30:50.469Z,7.37
2018-12-11T10:33:18.889Z,6.97
2018-12-11T10:35:47.210Z,4.70
2018-12-11T10:38:15.477Z,8.10
2018-12-11T10:40:43.575Z,4.60
2018-12-11T10:43:11.785Z,5.03
2018-12-11T10:45:39.997Z,4.97
2018-12-11T10:48:08.232Z,4.63
2018-12-11T10:50:36.460Z,6.63
2018-12-11T10:53:04.796Z,8.00
2018-12-11T10:55:33.029Z,8.60
2018-12-11T10:58:01.224Z,13.70
2018-12-11T11:00:34.628Z,5.50
2018-12-11T11:03:08.168Z,4.47
2018-12-11T11:05:36.433Z,18.47
2018-12-11T11:08:04.634Z,4.80
2018-12-11T11:10:32.735Z,4.80
2018-12-11T11:13:00.969Z,10.63
2018-12-11T11:15:29.373Z,8.60
2018-12-11T11:17:57.634Z,17.67
2018-12-11T11:20:25.952Z,4.47
2018-12-11T11:22:54.050Z,3.57
2018-12-11T11:25:22.346Z,9.30
2018-12-11T11:27:50.613Z,10.50
2018-12-11T11:30:18.830Z,5.83
2018-12-11T11:32:47.033Z,6.70
2018-12-11T11:35:15.270Z,5.40
2018-12-11T11:37:43.547Z,4.80
2018-12-11T11:40:11.871Z,3.70
2018-12-11T11:42:40.389Z,5.17
2018-12-11T11:45:09.400Z,7.17
2018-12-11T11:47:37.548Z,4.20
2018-12-11T11:50:07.329Z,6.10
2018-12-11T11:52:35.498Z,3.53
2018-12-11T11:55:03.836Z,5.33
2018-12-11T11:57:32.117Z,4.67
2018-12-11T12:00:00.482Z,3.90
2018-12-11T12:02:33.372Z,5.17
2018-12-11T12:04:58.925Z,5.87
2018-12-11T12:07:27.125Z,7.20
2018-12-11T12:09:55.357Z,9.13
2018-12-11T12:12:23.544Z,7.67
2018-12-11T12:14:51.810Z,6.23
2018-12-11T12:17:20.030Z,5.07
2018-12-11T12:19:48.255Z,5.53
2018-12-11T12:22:16.473Z,4.47
2018-12-11T12:24:44.673Z,4.50
2018-12-11T12:27:12.966Z,5.23
2018-12-11T12:29:41.288Z,7.13
2018-12-11T12:32:09.543Z,6.80
2018-12-11T12:34:37.761Z,4.70
2018-12-11T12:37:06.045Z,5.43
2018-12-11T12:39:34.309Z,5.63
2018-12-11T12:42:02.501Z,5.70
2018-12-11T12:44:30.805Z,4.90
2018-12-11T12:46:59.031Z,4.80
2018-12-11T12:49:27.276Z,5.97
2018-12-11T12:51:55.667Z,6.27
2018-12-11T12:54:23.935Z,4.30
2018-12-11T12:56:52.137Z,6.63
2018-12-11T12:59:20.328Z,7.10
2018-12-11T13:01:48.646Z,8.50
2018-12-11T13:04:16.974Z,6.07
2018-12-11T13:06:45.532Z,3.23
2018-12-11T13:09:13.702Z,4.67
2018-12-11T13:11:41.865Z,5.17
2018-12-11T13:14:10.072Z,8.97
2018-12-11T13:16:38.369Z,11.10
2018-12-11T13:19:06.595Z,6.77
2018-12-11T13:21:34.770Z,9.03
2018-12-11T13:24:02.953Z,10.70
2018-12-11T13:26:31.246Z,4.43
2018-12-11T13:28:59.433Z,11.57
2018-12-11T13:31:27.710Z,10.30
2018-12-11T13:33:55.900Z,11.90
2018-12-11T13:36:24.128Z,8.40
2018-12-11T13:38:52.649Z,9.60
2018-12-11T13:41:20.968Z,6.13
2018-12-11T13:43:49.489Z,11.13
2018-12-11T13:46:17.752Z,19.77
2018-12-11T13:48:46.075Z,7.60
2018-12-11T13:51:14.350Z,9.50
2018-12-11T13:53:42.671Z,19.77
2018-12-11T13:56:10.991Z,10.47
2018-12-11T13:58:39.265Z,15.67
2018-12-11T14:01:07.481Z,17.57
2018-12-11T14:03:35.701Z,10.40
2018-12-11T14:06:03.925Z,10.33
2018-12-11T14:08:32.136Z,9.47
2018-12-11T14:11:00.357Z,9.10
2018-12-11T14:13:28.577Z,20.93
2018-12-11T14:15:56.782Z,9.23
2018-12-11T14:18:25.073Z,8.60
2018-12-11T14:20:53.390Z,6.70
2018-12-11T14:23:21.652Z,5.47
2018-12-11T14:25:49.855Z,6.43
2018-12-11T14:28:18.208Z,11.30
2018-12-11T14:30:46.425Z,7.80
2018-12-11T14:33:14.644Z,7.33
2018-12-11T14:35:42.857Z,6.83
2018-12-11T14:38:11.178Z,12.07
2018-12-11T14:40:39.393Z,14.67
2018-12-11T14:43:07.616Z,59.60
2018-12-11T14:45:35.891Z,13.53
2018-12-11T14:48:04.212Z,9.53
2018-12-11T14:50:32.533Z,13.80
2018-12-11T14:53:00.755Z,14.70
2018-12-11T14:55:29.022Z,7.70
2018-12-11T14:57:57.231Z,6.67
2018-12-11T15:00:25.487Z,12.00
2018-12-11T15:02:54.030Z,21.70
2018-12-11T15:05:22.297Z,29.60
2018-12-11T15:07:50.533Z,44.53
2018-12-11T15:10:18.994Z,22.57
2018-12-11T15:12:47.415Z,19.43
2018-12-11T15:15:15.681Z,14.53
2018-12-11T15:17:43.879Z,17.60
2018-12-11T15:20:12.176Z,13.63
2018-12-11T15:22:40.430Z,18.17
2018-12-11T15:25:08.715Z,20.13
2018-12-11T15:27:36.981Z,47.77
2018-12-11T15:30:05.284Z,67.97
2018-12-11T15:32:33.517Z,181.60
2018-12-11T15:35:01.755Z,171.30
2018-12-11T15:37:29.856Z,183.93
2018-12-11T15:39:58.056Z,167.30
2018-12-11T15:42:26.457Z,114.23
2018-12-11T15:44:54.826Z,110.07
2018-12-11T15:47:23.028Z,299.60
2018-12-11T15:49:51.227Z,388.90
2018-12-11T15:52:19.476Z,247.07
2018-12-11T15:54:47.758Z,216.17
2018-12-11T15:57:16.177Z,274.50
2018-12-11T15:59:44.344Z,193.40
2018-12-11T16:02:12.543Z,210.87
2018-12-11T16:04:40.838Z,193.93
2018-12-11T16:07:09.062Z,127.67
2018-12-11T16:09:37.628Z,129.37
2018-12-11T16:12:06.352Z,103.53
2018-12-11T16:14:34.788Z,64.63
2018-12-11T16:17:02.992Z,64.47
2018-12-11T16:19:31.088Z,51.77
2018-12-11T16:21:59.416Z,41.07
2018-12-11T16:24:27.701Z,40.50
2018-12-11T16:26:55.866Z,37.40
2018-12-11T16:29:24.066Z,32.77
2018-12-11T16:31:52.279Z,34.37
2018-12-11T16:34:20.591Z,43.83
2018-12-11T16:36:48.902Z,24.80
2018-12-11T16:39:17.225Z,36.83
2018-12-11T16:41:45.468Z,28.03
2018-12-11T16:44:13.686Z,31.47
2018-12-11T16:46:41.982Z,13.47
2018-12-11T16:49:10.125Z,26.07
2018-12-11T16:51:38.526Z,29.37
2018-12-11T16:54:06.788Z,33.27
2018-12-11T16:56:34.995Z,17.73
2018-12-11T16:59:03.208Z,26.17
2018-12-11T17:01:31.604Z,23.70
2018-12-11T17:03:59.923Z,15.83
2018-12-11T17:06:28.146Z,25.30
2018-12-11T17:08:56.411Z,58.87
2018-12-11T17:11:24.621Z,27.90
2018-12-11T17:13:52.856Z,29.07
2018-12-11T17:16:21.053Z,37.10
2018-12-11T17:18:49.345Z,22.17
2018-12-11T17:21:17.613Z,23.00
2018-12-11T17:23:45.833Z,26.07
2018-12-11T17:26:14.033Z,35.77
2018-12-11T17:28:42.262Z,31.27
2018-12-11T17:31:11.165Z,35.90
2018-12-11T17:33:39.398Z,30.27
2018-12-11T17:36:07.687Z,32.10
2018-12-11T17:38:35.958Z,46.60
2018-12-11T17:41:04.183Z,39.63
2018-12-11T17:43:32.480Z,41.00
2018-12-11T17:46:00.700Z,31.70
2018-12-11T17:48:29.191Z,17.57
2018-12-11T17:50:57.764Z,16.40
2018-12-11T17:53:26.115Z,18.77
2018-12-11T17:55:54.301Z,21.73
2018-12-11T17:58:22.617Z,20.57
2018-12-11T18:00:51.008Z,19.37
2018-12-11T18:03:19.263Z,23.47
2018-12-11T18:05:47.568Z,22.83
2018-12-11T18:08:15.792Z,29.33
2018-12-11T18:10:44.032Z,53.23
2018-12-11T18:13:12.347Z,50.10
2018-12-11T18:15:40.543Z,48.23
2018-12-11T18:18:08.819Z,41.47
2018-12-11T18:20:36.957Z,38.37
2018-12-11T18:23:05.205Z,44.63
2018-12-11T18:25:33.550Z,39.03
2018-12-11T18:28:01.762Z,36.27
2018-12-11T18:30:30.118Z,60.10
2018-12-11T18:32:58.303Z,41.50
2018-12-11T18:35:26.673Z,31.80
2018-12-11T18:37:55.011Z,29.57
2018-12-11T18:40:23.241Z,19.50
2018-12-11T18:42:51.494Z,26.97
2018-12-11T18:45:19.766Z,33.73
2018-12-11T18:47:50.001Z,33.10
2018-12-11T18:50:21.329Z,34.73
2018-12-11T18:52:48.781Z,34.97
2018-12-11T18:55:17.180Z,19.87
2018-12-11T18:57:45.542Z,19.47
2018-12-11T19:00:13.899Z,16.63
2018-12-11T19:02:42.140Z,15.50
2018-12-11T19:05:10.431Z,18.00
2018-12-11T19:07:38.604Z,18.93
2018-12-11T19:10:06.847Z,18.03
2018-12-11T19:12:35.037Z,17.17
2018-12-11T19:15:04.824Z,21.53
2018-12-11T19:17:33.280Z,22.40
2018-12-11T19:20:01.496Z,27.10
2018-12-11T19:22:29.776Z,19.20
2018-12-11T19:24:58.248Z,19.73
2018-12-11T19:27:26.338Z,21.07
2018-12-11T19:29:55.396Z,18.83
2018-12-11T19:32:24.033Z,16.83
2018-12-11T19:34:52.214Z,20.20
2018-12-11T19:37:20.429Z,17.27
2018-12-11T19:39:48.644Z,21.93
2018-12-11T19:42:16.865Z,23.63
2018-12-11T19:44:45.160Z,20.30
2018-12-11T19:47:13.481Z,38.30
2018-12-11T19:49:41.744Z,18.87
2018-12-11T19:52:09.972Z,17.50
2018-12-11T19:54:38.177Z,14.03
2018-12-11T19:57:06.461Z,11.40
2018-12-11T19:59:34.785Z,12.30
2018-12-11T20:02:03.028Z,13.67
2018-12-11T20:04:31.162Z,21.87
2018-12-11T20:06:59.384Z,15.23
2018-12-11T20:09:27.583Z,18.40
2018-12-11T20:11:55.831Z,22.17
2018-12-11T20:14:24.033Z,22.83
2018-12-11T20:16:52.253Z,22.98
2018-12-11T20:19:20.485Z,21.17
2018-12-11T20:21:48.695Z,33.60
2018-12-11T20:24:16.932Z,67.10
2018-12-11T20:26:45.200Z,58.87
2018-12-11T20:29:13.422Z,31.60
2018-12-11T20:31:41.685Z,34.80
2018-12-11T20:34:09.799Z,23.57
2018-12-11T20:36:38.024Z,24.53
2018-12-11T20:39:06.633Z,18.17
2018-12-11T20:41:34.846Z,19.57
2018-12-11T20:44:03.243Z,26.97
2018-12-11T20:46:31.511Z,36.57
2018-12-11T20:48:59.729Z,28.67
2018-12-11T20:51:27.928Z,27.17
2018-12-11T20:53:56.161Z,35.28
2018-12-11T20:56:24.342Z,33.13
2018-12-11T20:58:52.577Z,30.03
2018-12-11T21:01:20.824Z,41.00
2018-12-11T21:03:49.049Z,70.17
2018-12-11T21:06:17.222Z,62.13
2018-12-11T21:08:45.785Z,62.33
2018-12-11T21:11:14.017Z,59.27
2018-12-11T21:13:42.329Z,50.10
2018-12-11T21:16:11.091Z,34.07
2018-12-11T21:18:39.204Z,44.33
2018-12-11T21:21:07.468Z,33.95
2018-12-11T21:23:35.336Z,25.27
2018-12-11T21:28:42.942Z,21.37
2018-12-11T21:31:10.819Z,27.27
2018-12-11T21:33:42.072Z,27.60
2018-12-11T21:36:10.337Z,26.00
2018-12-11T21:38:38.632Z,19.63
2018-12-11T21:41:06.898Z,23.12
2018-12-11T21:43:35.120Z,21.20
2018-12-11T21:46:11.114Z,17.70
2018-12-11T21:48:39.304Z,17.53
2018-12-11T21:51:08.772Z,24.30
2018-12-11T21:53:36.647Z,18.87
2018-12-11T21:56:04.660Z,16.07
2018-12-11T21:58:40.326Z,17.52
2018-12-11T22:01:08.617Z,16.63
2018-12-11T22:03:36.664Z,13.97
2018-12-11T22:06:09.289Z,11.63
2018-12-11T22:08:37.571Z,11.10
2018-12-11T22:11:05.862Z,10.67
2018-12-11T22:13:34.117Z,11.13
2018-12-11T22:16:15.907Z,11.70
2018-12-11T22:18:44.170Z,12.07
2018-12-11T22:21:12.424Z,9.10
2018-12-11T22:23:40.660Z,9.77
2018-12-11T22:26:08.553Z,10.27
2018-12-11T22:28:36.850Z,32.23
2018-12-11T22:31:04.687Z,30.93
2018-12-11T22:33:32.653Z,22.33
2018-12-11T22:36:03.142Z,12.67
2018-12-11T22:38:31.481Z,11.73
2018-12-11T22:40:59.699Z,13.37
2018-12-11T22:43:27.636Z,20.70
2018-12-11T22:45:59.382Z,18.53
2018-12-11T22:48:27.912Z,16.67
2018-12-11T22:50:56.096Z,15.33
2018-12-11T22:53:24.312Z,12.47
2018-12-11T22:55:52.397Z,12.27
2018-12-11T22:58:20.274Z,12.07
2018-12-11T23:00:48.599Z,11.40
2018-12-11T23:03:16.459Z,11.47
2018-12-11T23:05:44.326Z,11.77
2018-12-11T23:08:12.243Z,14.73
2018-12-11T23:10:40.201Z,14.97
2018-12-11T23:13:08.084Z,13.27
2018-12-11T23:15:35.955Z,12.63
2018-12-11T23:18:03.829Z,14.23
2018-12-11T23:20:31.779Z,13.77
2018-12-11T23:22:59.660Z,14.13
2018-12-11T23:25:28.280Z,16.73
2018-12-11T23:27:56.893Z,15.00
2018-12-11T23:30:24.931Z,18.53
2018-12-11T23:32:52.883Z,17.83
2018-12-11T23:35:20.778Z,19.83
2018-12-11T23:37:48.625Z,20.73
2018-12-11T23:40:16.518Z,24.37
2018-12-11T23:42:44.364Z,24.43
2018-12-11T23:45:12.296Z,21.53
2018-12-11T23:47:40.200Z,17.60
2018-12-11T23:50:08.028Z,22.77
2018-12-11T23:52:35.832Z,21.23
2018-12-11T23:55:03.813Z,21.00
2018-12-11T23:57:31.677Z,21.55
2018-12-11T23:59:59.552Z,21.77
